Carlton, Georgia
Current Conditions -  °F | °C
As of 8:35 PM on Monday 22 Dec 2014 (Local Time) from KAHN Reporting Station
Moderate Rain Moderate Rain  
Wind Chill: 35°   Ceiling: 3600
Heat Index: 41°   Visibility: 4mi
Dew Point: 40°   Wind: 10mph
Humidity: 96%   Direction: 90°E
Pressure: 29.97"   Gusts: NA
Location:  34.04°N, 83.03°W
Report Text: KAHN 230135Z AUTO 09009KT 4SM RA BR SCT006 BKN036 OVC070 05/04 A2997 RMK AO2 P0026 T00500044
Loading
Personal Weather Stations






























Interactive Weather Map New forecast layout! Learn more

10-Day Weather Forecast

Advertisements
Track Severe Weather on mobile